Station: Hohenfels, ICAO: ETIH, Synop: Synop: 10775,
Koordinaten: 4913'00''N 01150'00''E, Hoehe: 442m, Entfernung: 30.43km
2018/04/22 13:56
ETIH 221356Z AUTO 19005KT 9999 FEW070 26/10 A2997 RMK AO2 SLP139 T02620103 $


Station: HOHENFELS (USAF), ICAO: EDIH, Synop: Synop: 10775,
Koordinaten: 49 13 N 011 49 E, Hoehe: 442m, Entfernung: 31.05km


Station: Ingolstadt, ICAO: ETSI, Synop: Synop: 10860,
Koordinaten: 4843'00''N 01132'00''E, Hoehe: 367m, Entfernung: 47.25km
2018/04/22 13:20
ETSI 221320Z AUTO 28005KT 7000 // ////// 27/08 Q1015 ///


Station: GAERMERSDORF, ICAO: EDZH, Synop: ,
Koordinaten: 49 25 N 011 54 E, Hoehe: 419m, Entfernung: 49.69km


Station: Kuemmersruck, ICAO: ETGK, Synop: Synop: 10771,
Koordinaten: 4926'00''N 01154'00''E, Hoehe: 419m, Entfernung: 51.50km


Station: Neuburg / Donau, ICAO: ETSN, Synop: Synop: 10853,
Koordinaten: 4843'00''N 01113'00''E, Hoehe: 380m, Entfernung: 67.01km
2018/04/22 13:20
ETSN 221320Z 24008KT 9999 FEW060 SCT320 26/08 Q1015 BLU+


mehr Wetter
WetterInfo - adds.pl 2.6.003 DL3EL © 2004-2017 [374286]